Time;durP1;ratioP1;P1;durP2;ratioP2;P2;SDS_P1;SDS_P2;PMS_P1;PMS_P2;Temp;Humidity;BMP_temperature;BMP_pressure;BME280_temperature;BME280_humidity;BME280_pressure;Samples;Min_cycle;Max_cycle;Signal;HPM_P1;HPM_P2
2023/08/27 00:04:54;;;;;;;;;;;15.90;99.90;;;;;;12233424;29;19930;-36
2023/08/27 00:10:58;;;;;;;;;;;16.00;99.90;;;;;;12235640;29;19927;-36
2023/08/27 00:17:03;;;;;;;;;;;16.00;99.90;;;;;;12234172;29;19937;-36
2023/08/27 00:23:04;;;;;;;;;;;16.00;99.90;;;;;;12234799;29;20401;-36
2023/08/27 00:29:06;;;;;;;;;;;15.90;99.90;;;;;;12234012;29;19970;-36
2023/08/27 00:35:08;;;;;;;;;;;15.70;99.90;;;;;;12232566;29;19982;-36
2023/08/27 00:41:10;;;;;;;;;;;15.60;99.90;;;;;;12233876;29;20434;-36
2023/08/27 00:47:12;;;;;;;;;;;15.40;99.90;;;;;;12235458;29;20450;-36
2023/08/27 00:53:15;;;;;;;;;;;15.50;99.90;;;;;;12234668;29;19935;-36
2023/08/27 00:59:17;;;;;;;;;;;15.60;99.90;;;;;;12238201;29;19974;-36
2023/08/27 01:05:20;;;;;;;;;;;15.60;99.90;;;;;;12235218;29;20454;-35
2023/08/27 01:11:30;;;;;;;;;;;15.50;99.90;;;;;;12231404;29;19927;-36
2023/08/27 01:17:34;;;;;;;;;;;15.30;99.90;;;;;;12234736;29;19935;-35
2023/08/27 01:23:35;;;;;;;;;;;15.20;99.90;;;;;;12241992;28;20132;-36
2023/08/27 01:29:43;;;;;;;;;;;15.20;99.90;;;;;;12230545;29;19941;-36
2023/08/27 01:35:45;;;;;;;;;;;15.40;99.90;;;;;;12233740;29;19935;-36
2023/08/27 01:41:47;;;;;;;;;;;15.50;99.90;;;;;;12230578;29;19931;-36
2023/08/27 01:47:49;;;;;;;;;;;15.60;99.90;;;;;;12231169;29;19966;-36
2023/08/27 01:53:51;;;;;;;;;;;15.50;99.90;;;;;;12231761;29;19931;-36
2023/08/27 01:59:53;;;;;;;;;;;15.00;99.90;;;;;;12234180;28;19934;-35
2023/08/27 02:05:54;;;;;;;;;;;15.10;99.90;;;;;;12232182;29;20351;-36
2023/08/27 02:11:57;;;;;;;;;;;15.40;99.90;;;;;;12228521;29;20021;-36
2023/08/27 02:17:59;;;;;;;;;;;15.60;99.90;;;;;;12229683;29;20467;-35
2023/08/27 02:24:00;;;;;;;;;;;15.40;99.90;;;;;;12228295;29;20359;-36
2023/08/27 02:30:03;;;;;;;;;;;15.20;99.90;;;;;;12231277;29;19982;-36
2023/08/27 02:36:04;;;;;;;;;;;15.30;99.90;;;;;;12236261;28;20050;-36
2023/08/27 02:42:07;;;;;;;;;;;14.30;99.90;;;;;;12231317;29;20493;-35
2023/08/27 02:48:09;;;;;;;;;;;14.50;99.90;;;;;;12227869;29;19957;-36
2023/08/27 02:54:11;;;;;;;;;;;14.80;99.90;;;;;;12285331;23;19937;-80
2023/08/27 03:00:13;;;;;;;;;;;14.90;99.90;;;;;;12256444;28;19930;-81
2023/08/27 03:06:16;;;;;;;;;;;15.00;99.90;;;;;;12282057;28;20026;-80
2023/08/27 03:12:18;;;;;;;;;;;15.10;99.90;;;;;;12276975;28;20034;-80
2023/08/27 03:18:20;;;;;;;;;;;15.10;99.90;;;;;;12283869;28;19985;-80
2023/08/27 03:24:22;;;;;;;;;;;14.90;99.90;;;;;;12286419;28;19926;-80
2023/08/27 03:30:24;;;;;;;;;;;15.00;99.90;;;;;;12287659;28;19952;-81
2023/08/27 03:36:26;;;;;;;;;;;14.90;99.90;;;;;;12289346;28;19996;-80
2023/08/27 03:42:28;;;;;;;;;;;15.00;99.90;;;;;;12304539;28;19938;-80
2023/08/27 03:48:30;;;;;;;;;;;15.10;99.90;;;;;;12290368;28;19931;-81
2023/08/27 03:54:32;;;;;;;;;;;15.10;99.90;;;;;;12288288;28;19930;-80
2023/08/27 04:00:35;;;;;;;;;;;14.90;99.90;;;;;;12290435;28;19941;-80
2023/08/27 04:06:37;;;;;;;;;;;14.90;99.90;;;;;;12295190;28;19927;-80
2023/08/27 04:12:38;;;;;;;;;;;14.90;99.90;;;;;;12312678;28;19923;-80
2023/08/27 04:18:40;;;;;;;;;;;14.90;99.90;;;;;;12280453;28;19963;-80
2023/08/27 04:24:43;;;;;;;;;;;14.70;99.90;;;;;;12336115;28;19953;-80
2023/08/27 04:30:48;;;;;;;;;;;14.60;99.90;;;;;;12319902;28;19938;-80
2023/08/27 04:36:50;;;;;;;;;;;14.70;99.90;;;;;;12298702;28;20029;-80
2023/08/27 04:42:52;;;;;;;;;;;15.00;99.90;;;;;;12281302;28;20029;-80
2023/08/27 04:48:54;;;;;;;;;;;15.00;99.90;;;;;;12271126;28;19930;-80
2023/08/27 04:54:56;;;;;;;;;;;14.70;99.90;;;;;;12278167;28;19930;-80
2023/08/27 05:00:58;;;;;;;;;;;14.70;99.90;;;;;;12264210;28;19930;-80
2023/08/27 05:07:00;;;;;;;;;;;14.90;99.90;;;;;;12261999;28;20021;-81
2023/08/27 05:13:03;;;;;;;;;;;14.80;99.90;;;;;;12285417;28;20401;-80
2023/08/27 05:19:07;;;;;;;;;;;14.60;99.90;;;;;;12258228;28;19926;-80
2023/08/27 05:25:11;;;;;;;;;;;14.70;99.90;;;;;;12273653;28;19982;-80
2023/08/27 05:31:13;;;;;;;;;;;14.80;99.90;;;;;;12269980;28;19938;-80
2023/08/27 05:37:18;;;;;;;;;;;14.80;99.90;;;;;;12277331;28;19965;-80
2023/08/27 05:43:20;;;;;;;;;;;14.90;99.90;;;;;;12274099;28;19938;-81
2023/08/27 05:49:22;;;;;;;;;;;15.00;99.90;;;;;;12278907;28;19962;-80
2023/08/27 05:55:24;;;;;;;;;;;15.10;99.90;;;;;;12275795;28;20307;-80
2023/08/27 06:01:27;;;;;;;;;;;15.10;99.90;;;;;;12292956;28;19931;-80
2023/08/27 06:07:29;;;;;;;;;;;14.90;99.90;;;;;;12276994;28;19933;-80
2023/08/27 06:13:35;;;;;;;;;;;15.20;99.90;;;;;;12270055;28;19937;-80
2023/08/27 06:19:39;;;;;;;;;;;15.50;99.90;;;;;;12271405;28;19931;-80
2023/08/27 06:25:49;;;;;;;;;;;15.80;99.90;;;;;;12272890;28;19931;-80
2023/08/27 06:31:51;;;;;;;;;;;15.90;99.90;;;;;;12278291;28;19934;-80
2023/08/27 06:37:53;;;;;;;;;;;15.70;99.90;;;;;;12267085;28;19934;-80
2023/08/27 06:43:58;;;;;;;;;;;15.90;99.90;;;;;;12279273;28;19930;-80
2023/08/27 06:50:00;;;;;;;;;;;16.40;99.90;;;;;;12297876;28;20595;-80
2023/08/27 06:56:03;;;;;;;;;;;16.70;99.90;;;;;;12287486;28;19930;-80
2023/08/27 07:02:05;;;;;;;;;;;16.80;99.90;;;;;;12284185;28;19931;-80
2023/08/27 07:08:08;;;;;;;;;;;17.00;99.90;;;;;;12280887;28;19930;-80
2023/08/27 07:14:09;;;;;;;;;;;17.20;99.90;;;;;;12282207;28;20310;-80
2023/08/27 07:20:11;;;;;;;;;;;17.20;99.90;;;;;;12266563;28;19934;-80
2023/08/27 07:26:13;;;;;;;;;;;17.30;99.90;;;;;;12272246;28;19930;-80
2023/08/27 07:32:16;;;;;;;;;;;17.10;99.90;;;;;;12269853;28;19938;-80
2023/08/27 07:38:29;;;;;;;;;;;17.10;99.90;;;;;;12274634;28;19930;-80
2023/08/27 07:44:31;;;;;;;;;;;17.10;99.90;;;;;;12295514;28;19934;-80
2023/08/27 07:50:33;;;;;;;;;;;17.20;99.90;;;;;;12278594;28;19926;-80
2023/08/27 07:56:35;;;;;;;;;;;17.50;99.90;;;;;;12277909;28;19934;-80
2023/08/27 08:02:37;;;;;;;;;;;17.60;99.90;;;;;;12269745;28;19937;-80
2023/08/27 08:08:39;;;;;;;;;;;17.80;99.90;;;;;;12271940;28;20911;-80
2023/08/27 08:14:42;;;;;;;;;;;17.90;99.90;;;;;;12274854;28;19934;-80
2023/08/27 08:20:44;;;;;;;;;;;17.90;99.90;;;;;;12278336;28;19931;-81
2023/08/27 08:26:46;;;;;;;;;;;17.80;99.90;;;;;;12268935;28;19954;-81
2023/08/27 08:32:48;;;;;;;;;;;17.90;99.90;;;;;;12271058;28;20395;-81
2023/08/27 08:38:50;;;;;;;;;;;18.00;99.90;;;;;;12268672;28;19931;-81
2023/08/27 08:45:13;;;;;;;;;;;17.90;99.90;;;;;;12263608;28;19930;-82
2023/08/27 08:51:24;;;;;;;;;;;17.60;99.90;;;;;;12292821;28;19930;-84
2023/08/27 08:57:27;;;;;;;;;;;16.80;99.90;;;;;;12275217;28;19946;-83
2023/08/27 09:03:30;;;;;;;;;;;16.20;99.90;;;;;;12298165;28;19969;-81
2023/08/27 09:09:33;;;;;;;;;;;15.90;99.90;;;;;;12292588;28;19949;-82
2023/08/27 09:15:35;;;;;;;;;;;15.70;99.90;;;;;;12280471;28;19930;-82
2023/08/27 09:21:37;;;;;;;;;;;15.70;99.90;;;;;;12276700;28;19931;-81
2023/08/27 09:27:42;;;;;;;;;;;15.50;99.90;;;;;;12277107;28;20001;-82
2023/08/27 09:33:44;;;;;;;;;;;15.70;99.90;;;;;;12278073;28;19934;-81
2023/08/27 09:39:49;;;;;;;;;;;15.60;99.90;;;;;;12267321;28;19934;-82
2023/08/27 09:45:51;;;;;;;;;;;15.60;99.90;;;;;;12292706;28;19930;-82
2023/08/27 09:51:55;;;;;;;;;;;15.80;99.90;;;;;;12261945;28;19930;-83
2023/08/27 09:57:59;;;;;;;;;;;16.00;99.90;;;;;;12264524;28;23087;-82
2023/08/27 10:04:10;;;;;;;;;;;15.90;99.90;;;;;;12285258;28;20722;-82
2023/08/27 10:10:17;;;;;;;;;;;16.00;99.90;;;;;;12276573;28;19934;-82
2023/08/27 10:16:19;;;;;;;;;;;16.00;99.90;;;;;;12293929;28;20034;-82
2023/08/27 10:22:22;;;;;;;;;;;16.00;99.90;;;;;;12277932;28;19937;-82
2023/08/27 10:28:25;;;;;;;;;;;16.30;99.90;;;;;;12288716;28;19958;-81
2023/08/27 10:34:29;;;;;;;;;;;16.20;99.90;;;;;;12300096;28;19981;-81
2023/08/27 10:40:32;;;;;;;;;;;16.20;99.90;;;;;;12274323;28;20351;-81
2023/08/27 10:46:34;;;;;;;;;;;16.20;99.90;;;;;;12277163;28;19950;-81
2023/08/27 10:52:52;;;;;;;;;;;16.20;99.90;;;;;;12278876;28;19966;-80
2023/08/27 10:58:58;;;;;;;;;;;16.10;99.90;;;;;;12275152;28;19934;-81
2023/08/27 11:05:05;;;;;;;;;;;16.20;99.90;;;;;;12285853;28;19930;-80
2023/08/27 11:11:11;;;;;;;;;;;16.30;99.90;;;;;;12275840;28;19930;-79
2023/08/27 11:17:21;;;;;;;;;;;16.40;99.90;;;;;;12279672;28;20516;-80
2023/08/27 11:23:24;;;;;;;;;;;16.30;99.90;;;;;;12281604;28;20505;-79
2023/08/27 11:29:27;;;;;;;;;;;16.30;99.90;;;;;;12279069;28;19930;-80
2023/08/27 11:35:29;;;;;;;;;;;16.40;99.90;;;;;;12277121;28;19926;-80
2023/08/27 11:41:38;;;;;;;;;;;16.40;99.90;;;;;;12255504;28;19937;-80
2023/08/27 11:47:41;;;;;;;;;;;16.30;99.90;;;;;;12276548;28;19927;-80
2023/08/27 11:53:44;;;;;;;;;;;16.40;99.90;;;;;;12274961;28;20284;-80
2023/08/27 11:59:48;;;;;;;;;;;16.50;99.90;;;;;;12272562;28;19930;-79
2023/08/27 12:05:51;;;;;;;;;;;16.60;99.90;;;;;;12279554;28;19938;-80
2023/08/27 12:11:53;;;;;;;;;;;16.80;99.90;;;;;;12295443;28;19942;-80
2023/08/27 12:17:55;;;;;;;;;;;17.10;99.90;;;;;;12276572;28;19930;-80
2023/08/27 12:23:57;;;;;;;;;;;17.20;99.90;;;;;;12272415;28;20361;-81
2023/08/27 12:29:59;;;;;;;;;;;17.80;99.90;;;;;;12271736;28;20470;-80
2023/08/27 12:36:04;;;;;;;;;;;18.30;99.90;;;;;;12268724;28;19973;-82
2023/08/27 12:42:07;;;;;;;;;;;18.10;99.90;;;;;;12280650;28;19927;-82
2023/08/27 12:48:09;;;;;;;;;;;18.20;99.90;;;;;;12264908;28;20008;-80
2023/08/27 12:54:11;;;;;;;;;;;18.10;99.90;;;;;;12263365;28;19930;-81
2023/08/27 13:00:13;;;;;;;;;;;18.20;99.90;;;;;;12278347;28;21128;-80
2023/08/27 13:06:15;;;;;;;;;;;18.70;99.90;;;;;;12280204;28;20434;-80
2023/08/27 13:12:17;;;;;;;;;;;19.00;99.90;;;;;;12264918;28;19938;-80
2023/08/27 13:18:21;;;;;;;;;;;19.20;99.90;;;;;;12295271;28;19941;-81
2023/08/27 13:24:23;;;;;;;;;;;19.50;99.90;;;;;;12275132;28;20020;-80
2023/08/27 13:30:25;;;;;;;;;;;19.60;99.90;;;;;;12275109;28;19930;-80
2023/08/27 13:36:27;;;;;;;;;;;19.90;99.90;;;;;;12282052;28;19930;-80
2023/08/27 13:42:29;;;;;;;;;;;20.10;99.90;;;;;;12267897;28;19979;-80
2023/08/27 13:48:31;;;;;;;;;;;20.60;99.90;;;;;;12276167;28;19930;-80
2023/08/27 13:54:33;;;;;;;;;;;20.20;99.90;;;;;;12292125;28;20791;-81
2023/08/27 14:00:35;;;;;;;;;;;20.10;99.90;;;;;;12278046;28;20008;-82
2023/08/27 14:06:39;;;;;;;;;;;20.00;99.90;;;;;;12275446;28;20767;-81
2023/08/27 14:12:43;;;;;;;;;;;19.80;99.90;;;;;;12273135;28;20255;-81
2023/08/27 14:18:45;;;;;;;;;;;20.00;99.90;;;;;;12261931;28;20879;-82
2023/08/27 14:24:47;;;;;;;;;;;19.70;99.90;;;;;;12274499;28;19930;-81
2023/08/27 14:30:49;;;;;;;;;;;19.60;99.90;;;;;;12273860;28;19926;-82
2023/08/27 14:36:51;;;;;;;;;;;19.60;99.90;;;;;;12264281;28;20001;-81
2023/08/27 14:42:53;;;;;;;;;;;19.70;99.90;;;;;;12271115;28;19934;-83
2023/08/27 14:48:54;;;;;;;;;;;20.10;99.90;;;;;;12279000;28;19989;-82
2023/08/27 14:54:56;;;;;;;;;;;20.40;99.90;;;;;;12281995;28;19934;-83
2023/08/27 15:00:58;;;;;;;;;;;19.70;99.90;;;;;;12280028;28;20708;-83
2023/08/27 15:07:02;;;;;;;;;;;19.30;99.90;;;;;;12277118;28;19930;-83
2023/08/27 15:13:08;;;;;;;;;;;19.00;99.90;;;;;;12282434;28;19931;-82
2023/08/27 15:19:10;;;;;;;;;;;18.70;99.90;;;;;;12286343;28;19934;-83
2023/08/27 15:25:12;;;;;;;;;;;17.50;99.90;;;;;;12288784;28;19927;-82
2023/08/27 15:31:14;;;;;;;;;;;16.50;99.90;;;;;;12287112;28;19931;-80
2023/08/27 15:37:16;;;;;;;;;;;16.00;99.90;;;;;;12305838;28;19938;-82
2023/08/27 15:43:28;;;;;;;;;;;15.70;99.90;;;;;;12298759;28;20478;-81
2023/08/27 15:49:30;;;;;;;;;;;15.70;99.90;;;;;;12341014;28;19914;-82
2023/08/27 15:55:34;;;;;;;;;;;15.60;99.90;;;;;;12328537;28;19993;-83
2023/08/27 16:01:36;;;;;;;;;;;15.60;99.90;;;;;;12316606;28;19930;-82
2023/08/27 16:07:37;;;;;;;;;;;15.80;99.90;;;;;;12295276;28;19930;-81
2023/08/27 16:13:39;;;;;;;;;;;16.10;99.90;;;;;;12285115;28;19938;-81
2023/08/27 16:19:46;;;;;;;;;;;16.00;99.90;;;;;;12280278;28;20077;-81
2023/08/27 16:25:49;;;;;;;;;;;16.10;99.90;;;;;;12285172;28;20049;-82
2023/08/27 16:31:51;;;;;;;;;;;16.20;99.90;;;;;;12282011;28;19938;-82
2023/08/27 16:37:52;;;;;;;;;;;16.60;99.90;;;;;;12284651;28;20299;-82
2023/08/27 16:43:54;;;;;;;;;;;16.80;99.90;;;;;;12297279;28;19930;-82
2023/08/27 16:49:56;;;;;;;;;;;17.10;99.90;;;;;;12276694;28;19957;-82
2023/08/27 16:55:58;;;;;;;;;;;17.30;99.90;;;;;;12278277;28;19937;-81
2023/08/27 17:02:00;;;;;;;;;;;17.30;99.90;;;;;;12277732;28;20100;-82
2023/08/27 17:08:02;;;;;;;;;;;17.40;99.90;;;;;;12272540;28;19956;-82
2023/08/27 17:14:05;;;;;;;;;;;17.30;99.90;;;;;;12279823;28;19977;-82
2023/08/27 17:20:07;;;;;;;;;;;17.10;99.90;;;;;;12280292;28;19926;-83
2023/08/27 17:26:09;;;;;;;;;;;17.10;99.90;;;;;;12273006;28;19931;-82
2023/08/27 17:32:10;;;;;;;;;;;17.10;99.90;;;;;;12274481;28;19930;-83
2023/08/27 17:38:12;;;;;;;;;;;17.10;99.90;;;;;;12287958;28;19927;-81
2023/08/27 17:44:15;;;;;;;;;;;16.80;99.90;;;;;;12292354;28;19934;-82
2023/08/27 17:50:17;;;;;;;;;;;16.60;99.90;;;;;;12292913;28;20406;-81
2023/08/27 17:56:19;;;;;;;;;;;16.50;99.90;;;;;;12288711;28;19931;-82
2023/08/27 18:02:22;;;;;;;;;;;16.00;99.90;;;;;;12278088;28;20375;-82
2023/08/27 18:08:25;;;;;;;;;;;15.80;99.90;;;;;;12272762;28;19972;-82
2023/08/27 18:14:27;;;;;;;;;;;15.60;99.90;;;;;;12273547;28;19942;-81
2023/08/27 18:20:30;;;;;;;;;;;15.50;99.90;;;;;;12291557;28;19933;-80
2023/08/27 18:26:33;;;;;;;;;;;15.30;99.90;;;;;;12274832;28;20596;-81
2023/08/27 18:32:35;;;;;;;;;;;15.20;99.90;;;;;;12274625;28;19934;-81
2023/08/27 18:38:36;;;;;;;;;;;15.10;99.90;;;;;;12284396;28;19937;-80
2023/08/27 18:44:38;;;;;;;;;;;14.90;99.90;;;;;;12275444;28;20037;-81
2023/08/27 18:50:40;;;;;;;;;;;14.90;99.90;;;;;;12275324;28;19973;-81
2023/08/27 18:56:42;;;;;;;;;;;15.00;99.90;;;;;;12284049;28;19957;-82
2023/08/27 19:02:44;;;;;;;;;;;14.80;99.90;;;;;;12283807;28;19934;-81
2023/08/27 19:08:46;;;;;;;;;;;14.80;99.90;;;;;;12281636;28;19930;-81
2023/08/27 19:14:51;;;;;;;;;;;14.80;99.90;;;;;;12283672;28;19937;-81
2023/08/27 19:20:52;;;;;;;;;;;14.80;99.90;;;;;;12280286;28;19930;-82
2023/08/27 19:26:54;;;;;;;;;;;14.90;99.90;;;;;;12280173;28;20419;-81
2023/08/27 19:32:56;;;;;;;;;;;14.80;99.90;;;;;;12277203;28;19989;-82
2023/08/27 19:38:58;;;;;;;;;;;14.70;99.90;;;;;;12273576;28;20391;-81
2023/08/27 19:45:02;;;;;;;;;;;14.70;99.90;;;;;;12278820;28;19969;-82
2023/08/27 19:51:05;;;;;;;;;;;14.60;99.90;;;;;;12281956;28;20307;-82
2023/08/27 19:57:07;;;;;;;;;;;14.50;99.90;;;;;;12276659;28;19945;-81
2023/08/27 20:03:09;;;;;;;;;;;14.40;99.90;;;;;;12279018;28;19941;-81
2023/08/27 20:09:13;;;;;;;;;;;14.50;99.90;;;;;;12264832;28;19934;-80
2023/08/27 20:15:15;;;;;;;;;;;14.50;99.90;;;;;;12288567;28;19934;-81
2023/08/27 20:21:17;;;;;;;;;;;14.40;99.90;;;;;;12279852;28;19930;-81
2023/08/27 20:27:19;;;;;;;;;;;14.50;99.90;;;;;;12273648;28;19981;-81
2023/08/27 20:33:21;;;;;;;;;;;14.40;99.90;;;;;;12275441;28;19997;-82
2023/08/27 20:39:22;;;;;;;;;;;14.30;99.90;;;;;;12263747;28;20792;-80
2023/08/27 20:45:27;;;;;;;;;;;14.40;99.90;;;;;;12279102;28;20022;-80
2023/08/27 20:51:31;;;;;;;;;;;14.40;99.90;;;;;;12275678;28;20489;-81
2023/08/27 20:57:33;;;;;;;;;;;14.40;99.90;;;;;;12273087;28;19957;-82
2023/08/27 21:03:35;;;;;;;;;;;14.30;99.90;;;;;;12292714;28;19953;-81
2023/08/27 21:09:37;;;;;;;;;;;14.30;99.90;;;;;;12275205;28;19930;-83
2023/08/27 21:15:39;;;;;;;;;;;14.30;99.90;;;;;;12292463;28;20470;-82
2023/08/27 21:21:40;;;;;;;;;;;14.30;99.90;;;;;;12280372;28;20057;-81
2023/08/27 21:27:42;;;;;;;;;;;14.30;99.90;;;;;;12276834;28;20535;-81
2023/08/27 21:33:44;;;;;;;;;;;14.30;99.90;;;;;;12272850;28;20722;-81
2023/08/27 21:39:46;;;;;;;;;;;14.10;99.90;;;;;;12277329;28;20795;-81
2023/08/27 21:45:48;;;;;;;;;;;14.10;99.90;;;;;;12265994;28;19982;-82
2023/08/27 21:51:57;;;;;;;;;;;14.10;99.90;;;;;;12278954;28;19986;-82
2023/08/27 21:57:58;;;;;;;;;;;14.00;99.90;;;;;;12276054;28;19945;-81
2023/08/27 22:04:00;;;;;;;;;;;14.00;99.90;;;;;;12276978;28;19954;-80
2023/08/27 22:10:02;;;;;;;;;;;14.00;99.90;;;;;;12292255;28;19973;-80
2023/08/27 22:16:07;;;;;;;;;;;13.90;99.90;;;;;;12277427;28;19930;-80
2023/08/27 22:22:12;;;;;;;;;;;13.80;99.90;;;;;;12274135;28;20363;-80
2023/08/27 22:28:13;;;;;;;;;;;13.90;99.90;;;;;;12270756;28;20375;-80
2023/08/27 22:34:15;;;;;;;;;;;13.80;99.90;;;;;;12271004;28;20395;-80
2023/08/27 22:40:17;;;;;;;;;;;13.80;99.90;;;;;;12271590;28;20021;-80
2023/08/27 22:46:19;;;;;;;;;;;13.80;99.90;;;;;;12276698;28;19930;-81
2023/08/27 22:52:24;;;;;;;;;;;13.70;99.90;;;;;;12270286;28;19930;-81
2023/08/27 22:58:26;;;;;;;;;;;13.60;99.90;;;;;;12276488;28;19941;-80
2023/08/27 23:04:28;;;;;;;;;;;13.70;99.90;;;;;;12270341;28;19941;-80
2023/08/27 23:10:30;;;;;;;;;;;13.60;99.90;;;;;;12271931;28;19935;-82
2023/08/27 23:16:32;;;;;;;;;;;13.60;99.90;;;;;;12270594;28;20009;-80
2023/08/27 23:22:41;;;;;;;;;;;13.50;99.90;;;;;;12282470;28;19985;-80
2023/08/27 23:28:44;;;;;;;;;;;13.50;99.90;;;;;;12286693;28;20604;-81
2023/08/27 23:34:46;;;;;;;;;;;13.50;99.90;;;;;;12282452;28;19989;-82
2023/08/27 23:40:48;;;;;;;;;;;13.60;99.90;;;;;;12288864;28;19937;-80
2023/08/27 23:46:50;;;;;;;;;;;13.50;99.90;;;;;;12285466;28;20069;-80
2023/08/27 23:52:52;;;;;;;;;;;13.40;99.90;;;;;;12281098;28;19931;-80
2023/08/27 23:58:54;;;;;;;;;;;13.40;99.90;;;;;;12289628;28;19930;-80
